sensor_id;sensor_type;location;lat;lon;timestamp;pressure;altitude;pressure_sealevel;temperature;humidity
81224;BME280;70698;44.402;18.522;2024-02-21T00:01:44;98341.84;;;6.50;83.52
81224;BME280;70698;44.402;18.522;2024-02-21T00:04:10;98359.91;;;6.63;83.21
81224;BME280;70698;44.402;18.522;2024-02-21T00:06:35;98354.78;;;6.52;83.64
81224;BME280;70698;44.402;18.522;2024-02-21T00:09:01;98359.25;;;6.61;83.56
81224;BME280;70698;44.402;18.522;2024-02-21T00:11:27;98354.97;;;6.60;83.56
81224;BME280;70698;44.402;18.522;2024-02-21T00:13:53;98344.06;;;6.55;83.12
81224;BME280;70698;44.402;18.522;2024-02-21T00:16:19;98335.41;;;6.54;82.23
81224;BME280;70698;44.402;18.522;2024-02-21T00:18:45;98343.50;;;6.72;82.16
81224;BME280;70698;44.402;18.522;2024-02-21T00:21:10;98338.34;;;6.61;82.33
81224;BME280;70698;44.402;18.522;2024-02-21T00:23:45;98336.56;;;6.61;82.28
81224;BME280;70698;44.402;18.522;2024-02-21T00:26:11;98333.44;;;6.67;81.28
81224;BME280;70698;44.402;18.522;2024-02-21T00:28:38;98337.44;;;6.51;82.74
81224;BME280;70698;44.402;18.522;2024-02-21T00:31:03;98325.22;;;6.51;82.82
81224;BME280;70698;44.402;18.522;2024-02-21T00:33:29;98327.41;;;6.46;83.45
81224;BME280;70698;44.402;18.522;2024-02-21T00:35:54;98327.97;;;6.49;83.47
81224;BME280;70698;44.402;18.522;2024-02-21T00:38:20;98325.72;;;6.45;83.98
81224;BME280;70698;44.402;18.522;2024-02-21T00:40:46;98330.94;;;6.45;83.65
81224;BME280;70698;44.402;18.522;2024-02-21T00:43:11;98326.28;;;6.48;83.66
81224;BME280;70698;44.402;18.522;2024-02-21T00:45:37;98314.63;;;6.53;83.39
81224;BME280;70698;44.402;18.522;2024-02-21T00:48:03;98313.19;;;6.60;82.65
81224;BME280;70698;44.402;18.522;2024-02-21T00:50:29;98297.50;;;6.60;81.85
81224;BME280;70698;44.402;18.522;2024-02-21T00:52:55;98309.81;;;6.78;81.24
81224;BME280;70698;44.402;18.522;2024-02-21T00:55:21;98304.47;;;6.80;81.12
81224;BME280;70698;44.402;18.522;2024-02-21T00:57:46;98305.44;;;6.79;80.95
81224;BME280;70698;44.402;18.522;2024-02-21T01:00:12;98314.53;;;6.84;81.02
81224;BME280;70698;44.402;18.522;2024-02-21T01:02:38;98313.28;;;6.79;81.47
81224;BME280;70698;44.402;18.522;2024-02-21T01:05:04;98298.75;;;6.86;82.03
81224;BME280;70698;44.402;18.522;2024-02-21T01:07:29;98295.81;;;6.79;82.20
81224;BME280;70698;44.402;18.522;2024-02-21T01:09:55;98305.44;;;6.79;81.94
81224;BME280;70698;44.402;18.522;2024-02-21T01:12:21;98301.75;;;6.81;83.18
81224;BME280;70698;44.402;18.522;2024-02-21T01:14:47;98300.41;;;6.87;82.64
81224;BME280;70698;44.402;18.522;2024-02-21T01:17:13;98284.00;;;6.85;82.26
81224;BME280;70698;44.402;18.522;2024-02-21T01:19:38;98298.66;;;6.97;81.79
81224;BME280;70698;44.402;18.522;2024-02-21T01:22:04;98299.53;;;7.07;82.28
81224;BME280;70698;44.402;18.522;2024-02-21T01:24:30;98288.28;;;6.86;84.55
81224;BME280;70698;44.402;18.522;2024-02-21T01:26:55;98292.13;;;6.82;85.90
81224;BME280;70698;44.402;18.522;2024-02-21T01:29:21;98284.25;;;6.72;85.98
81224;BME280;70698;44.402;18.522;2024-02-21T01:31:46;98301.47;;;6.84;85.03
81224;BME280;70698;44.402;18.522;2024-02-21T01:34:13;98285.75;;;6.75;86.50
81224;BME280;70698;44.402;18.522;2024-02-21T01:36:38;98301.13;;;6.68;88.04
81224;BME280;70698;44.402;18.522;2024-02-21T01:39:04;98289.50;;;6.52;89.45
81224;BME280;70698;44.402;18.522;2024-02-21T01:41:30;98304.06;;;6.54;90.17
81224;BME280;70698;44.402;18.522;2024-02-21T01:43:56;98294.66;;;6.42;91.15
81224;BME280;70698;44.402;18.522;2024-02-21T01:46:23;98305.84;;;6.54;90.91
81224;BME280;70698;44.402;18.522;2024-02-21T01:48:49;98303.38;;;6.52;90.74
81224;BME280;70698;44.402;18.522;2024-02-21T01:51:15;98310.06;;;6.66;89.61
81224;BME280;70698;44.402;18.522;2024-02-21T01:53:44;98302.53;;;6.72;88.28
81224;BME280;70698;44.402;18.522;2024-02-21T01:56:10;98288.09;;;6.47;88.52
81224;BME280;70698;44.402;18.522;2024-02-21T01:58:39;98304.44;;;6.49;90.13
81224;BME280;70698;44.402;18.522;2024-02-21T02:01:06;98298.09;;;6.42;91.47
81224;BME280;70698;44.402;18.522;2024-02-21T02:03:31;98298.34;;;6.39;92.26
81224;BME280;70698;44.402;18.522;2024-02-21T02:05:57;98295.66;;;6.51;91.05
81224;BME280;70698;44.402;18.522;2024-02-21T02:08:23;98291.56;;;6.58;88.77
81224;BME280;70698;44.402;18.522;2024-02-21T02:10:49;98294.44;;;6.55;89.62
81224;BME280;70698;44.402;18.522;2024-02-21T02:13:15;98295.72;;;6.39;90.75
81224;BME280;70698;44.402;18.522;2024-02-21T02:15:41;98296.88;;;6.46;90.97
81224;BME280;70698;44.402;18.522;2024-02-21T02:18:07;98288.00;;;6.59;89.08
81224;BME280;70698;44.402;18.522;2024-02-21T02:20:33;98294.50;;;6.64;88.83
81224;BME280;70698;44.402;18.522;2024-02-21T02:22:59;98286.66;;;6.64;89.33
81224;BME280;70698;44.402;18.522;2024-02-21T02:25:26;98286.72;;;6.74;89.26
81224;BME280;70698;44.402;18.522;2024-02-21T02:27:52;98282.59;;;6.71;88.44
81224;BME280;70698;44.402;18.522;2024-02-21T02:30:18;98298.31;;;6.81;89.00
81224;BME280;70698;44.402;18.522;2024-02-21T02:32:46;98277.59;;;6.68;88.59
81224;BME280;70698;44.402;18.522;2024-02-21T02:35:12;98297.44;;;6.71;89.50
81224;BME280;70698;44.402;18.522;2024-02-21T02:37:37;98293.59;;;6.75;88.89
81224;BME280;70698;44.402;18.522;2024-02-21T02:40:06;98297.94;;;6.65;89.19
81224;BME280;70698;44.402;18.522;2024-02-21T02:42:32;98300.44;;;6.66;89.47
81224;BME280;70698;44.402;18.522;2024-02-21T02:44:57;98297.94;;;6.65;89.27
81224;BME280;70698;44.402;18.522;2024-02-21T02:47:23;98308.16;;;6.47;90.59
81224;BME280;70698;44.402;18.522;2024-02-21T02:49:48;98293.56;;;6.44;90.66
81224;BME280;70698;44.402;18.522;2024-02-21T02:52:19;98296.19;;;6.44;90.68
81224;BME280;70698;44.402;18.522;2024-02-21T02:54:45;98300.91;;;6.51;89.22
81224;BME280;70698;44.402;18.522;2024-02-21T02:57:11;98307.44;;;6.45;89.55
81224;BME280;70698;44.402;18.522;2024-02-21T02:59:36;98303.78;;;6.47;90.35
81224;BME280;70698;44.402;18.522;2024-02-21T03:02:02;98310.50;;;6.50;90.13
81224;BME280;70698;44.402;18.522;2024-02-21T03:04:27;98315.84;;;6.48;90.79
81224;BME280;70698;44.402;18.522;2024-02-21T03:06:53;98334.19;;;6.58;91.07
81224;BME280;70698;44.402;18.522;2024-02-21T03:09:18;98327.56;;;6.54;91.09
81224;BME280;70698;44.402;18.522;2024-02-21T03:11:44;98317.72;;;6.37;92.67
81224;BME280;70698;44.402;18.522;2024-02-21T03:14:10;98335.47;;;6.43;92.36
81224;BME280;70698;44.402;18.522;2024-02-21T03:16:36;98321.72;;;6.41;92.38
81224;BME280;70698;44.402;18.522;2024-02-21T03:19:01;98334.34;;;6.36;92.77
81224;BME280;70698;44.402;18.522;2024-02-21T03:21:27;98343.19;;;6.44;93.03
81224;BME280;70698;44.402;18.522;2024-02-21T03:23:52;98345.28;;;6.30;93.58
81224;BME280;70698;44.402;18.522;2024-02-21T03:26:18;98329.28;;;6.23;94.74
81224;BME280;70698;44.402;18.522;2024-02-21T03:28:44;98343.94;;;6.35;92.73
81224;BME280;70698;44.402;18.522;2024-02-21T03:31:12;98342.63;;;6.41;92.50
81224;BME280;70698;44.402;18.522;2024-02-21T03:33:42;98351.47;;;6.49;91.53
81224;BME280;70698;44.402;18.522;2024-02-21T03:36:13;98334.41;;;6.45;89.48
81224;BME280;70698;44.402;18.522;2024-02-21T03:38:39;98348.44;;;6.33;91.32
81224;BME280;70698;44.402;18.522;2024-02-21T03:41:05;98354.13;;;6.38;92.59
81224;BME280;70698;44.402;18.522;2024-02-21T03:43:31;98357.19;;;6.43;90.95
81224;BME280;70698;44.402;18.522;2024-02-21T03:45:56;98356.28;;;6.54;90.79
81224;BME280;70698;44.402;18.522;2024-02-21T03:48:22;98354.13;;;6.38;91.21
81224;BME280;70698;44.402;18.522;2024-02-21T03:50:47;98353.38;;;6.27;92.15
81224;BME280;70698;44.402;18.522;2024-02-21T03:53:13;98347.63;;;6.33;93.43
81224;BME280;70698;44.402;18.522;2024-02-21T03:55:39;98350.44;;;6.41;92.41
81224;BME280;70698;44.402;18.522;2024-02-21T03:58:04;98359.41;;;6.48;90.88
81224;BME280;70698;44.402;18.522;2024-02-21T04:00:30;98355.34;;;6.34;91.80
81224;BME280;70698;44.402;18.522;2024-02-21T04:02:55;98359.03;;;6.32;93.48
81224;BME280;70698;44.402;18.522;2024-02-21T04:05:21;98344.78;;;6.36;93.34
81224;BME280;70698;44.402;18.522;2024-02-21T04:07:47;98356.13;;;6.46;93.01
81224;BME280;70698;44.402;18.522;2024-02-21T04:10:12;98360.00;;;6.52;92.86
81224;BME280;70698;44.402;18.522;2024-02-21T04:12:38;98355.34;;;6.55;91.82
81224;BME280;70698;44.402;18.522;2024-02-21T04:15:04;98361.00;;;6.60;92.37
81224;BME280;70698;44.402;18.522;2024-02-21T04:17:30;98350.63;;;6.49;92.47
81224;BME280;70698;44.402;18.522;2024-02-21T04:20:04;98370.06;;;6.35;93.17
81224;BME280;70698;44.402;18.522;2024-02-21T04:22:34;98358.25;;;6.20;95.50
81224;BME280;70698;44.402;18.522;2024-02-21T04:25:00;98357.09;;;6.13;95.21
81224;BME280;70698;44.402;18.522;2024-02-21T04:27:26;98356.03;;;6.16;94.86
81224;BME280;70698;44.402;18.522;2024-02-21T04:29:53;98358.81;;;6.24;94.26
81224;BME280;70698;44.402;18.522;2024-02-21T04:32:18;98362.97;;;6.26;93.05
81224;BME280;70698;44.402;18.522;2024-02-21T04:34:44;98361.47;;;6.44;92.14
81224;BME280;70698;44.402;18.522;2024-02-21T04:37:10;98362.41;;;6.43;90.80
81224;BME280;70698;44.402;18.522;2024-02-21T04:39:35;98366.16;;;6.30;91.58
81224;BME280;70698;44.402;18.522;2024-02-21T04:42:01;98372.56;;;6.37;91.72
81224;BME280;70698;44.402;18.522;2024-02-21T04:44:26;98372.41;;;6.38;91.98
81224;BME280;70698;44.402;18.522;2024-02-21T04:46:52;98377.56;;;6.29;91.65
81224;BME280;70698;44.402;18.522;2024-02-21T04:49:18;98366.00;;;6.11;91.38
81224;BME280;70698;44.402;18.522;2024-02-21T04:51:43;98366.47;;;6.16;92.22
81224;BME280;70698;44.402;18.522;2024-02-21T04:54:09;98379.50;;;6.16;92.86
81224;BME280;70698;44.402;18.522;2024-02-21T04:56:34;98375.19;;;6.26;94.95
81224;BME280;70698;44.402;18.522;2024-02-21T04:59:00;98380.16;;;6.29;93.48
81224;BME280;70698;44.402;18.522;2024-02-21T05:01:26;98378.34;;;6.40;92.97
81224;BME280;70698;44.402;18.522;2024-02-21T05:03:51;98377.16;;;6.33;91.59
81224;BME280;70698;44.402;18.522;2024-02-21T05:06:17;98362.66;;;6.40;90.41
81224;BME280;70698;44.402;18.522;2024-02-21T05:08:42;98378.75;;;6.57;87.97
81224;BME280;70698;44.402;18.522;2024-02-21T05:11:08;98385.34;;;6.61;88.63
81224;BME280;70698;44.402;18.522;2024-02-21T05:13:34;98381.13;;;6.48;91.76
81224;BME280;70698;44.402;18.522;2024-02-21T05:15:59;98381.22;;;6.37;92.41
81224;BME280;70698;44.402;18.522;2024-02-21T05:18:27;98374.88;;;6.19;93.24
81224;BME280;70698;44.402;18.522;2024-02-21T05:20:53;98363.22;;;6.02;95.20
81224;BME280;70698;44.402;18.522;2024-02-21T05:23:19;98373.38;;;6.05;95.53
81224;BME280;70698;44.402;18.522;2024-02-21T05:25:44;98366.38;;;6.06;95.87
81224;BME280;70698;44.402;18.522;2024-02-21T05:28:10;98363.31;;;6.01;95.45
81224;BME280;70698;44.402;18.522;2024-02-21T05:30:36;98381.31;;;6.04;96.10
81224;BME280;70698;44.402;18.522;2024-02-21T05:33:05;98379.91;;;6.00;96.77
81224;BME280;70698;44.402;18.522;2024-02-21T05:35:31;98366.28;;;6.08;97.48
81224;BME280;70698;44.402;18.522;2024-02-21T05:37:57;98377.78;;;6.37;94.85
81224;BME280;70698;44.402;18.522;2024-02-21T05:40:23;98385.59;;;6.37;93.31
81224;BME280;70698;44.402;18.522;2024-02-21T05:42:48;98382.72;;;6.40;92.75
81224;BME280;70698;44.402;18.522;2024-02-21T05:45:16;98396.53;;;6.31;92.39
81224;BME280;70698;44.402;18.522;2024-02-21T05:47:42;98396.66;;;6.29;93.53
81224;BME280;70698;44.402;18.522;2024-02-21T05:50:07;98390.22;;;6.33;95.14
81224;BME280;70698;44.402;18.522;2024-02-21T05:52:34;98394.50;;;6.34;93.65
81224;BME280;70698;44.402;18.522;2024-02-21T05:54:59;98393.56;;;6.35;93.54
81224;BME280;70698;44.402;18.522;2024-02-21T05:57:25;98390.03;;;6.25;94.03
81224;BME280;70698;44.402;18.522;2024-02-21T05:59:50;98386.25;;;6.18;95.21
81224;BME280;70698;44.402;18.522;2024-02-21T06:02:16;98402.44;;;6.12;94.95
81224;BME280;70698;44.402;18.522;2024-02-21T06:04:41;98398.31;;;5.98;96.60
81224;BME280;70698;44.402;18.522;2024-02-21T06:07:08;98398.00;;;5.92;97.74
81224;BME280;70698;44.402;18.522;2024-02-21T06:09:34;98396.31;;;5.91;98.20
81224;BME280;70698;44.402;18.522;2024-02-21T06:11:59;98386.34;;;5.85;98.09
81224;BME280;70698;44.402;18.522;2024-02-21T06:14:26;98399.88;;;5.90;97.53
81224;BME280;70698;44.402;18.522;2024-02-21T06:16:51;98397.13;;;6.02;96.92
81224;BME280;70698;44.402;18.522;2024-02-21T06:19:17;98398.59;;;6.27;94.55
81224;BME280;70698;44.402;18.522;2024-02-21T06:21:43;98397.19;;;6.44;92.22
81224;BME280;70698;44.402;18.522;2024-02-21T06:24:08;98405.34;;;6.51;92.97
81224;BME280;70698;44.402;18.522;2024-02-21T06:26:34;98403.31;;;6.54;92.67
81224;BME280;70698;44.402;18.522;2024-02-21T06:28:59;98393.97;;;6.52;92.91
81224;BME280;70698;44.402;18.522;2024-02-21T06:31:25;98407.16;;;6.71;92.00
81224;BME280;70698;44.402;18.522;2024-02-21T06:33:51;98395.69;;;6.62;91.67
81224;BME280;70698;44.402;18.522;2024-02-21T06:36:16;98410.84;;;6.47;93.20
81224;BME280;70698;44.402;18.522;2024-02-21T06:38:42;98425.97;;;6.54;91.62
81224;BME280;70698;44.402;18.522;2024-02-21T06:41:15;98416.13;;;6.57;91.92
81224;BME280;70698;44.402;18.522;2024-02-21T06:43:41;98420.59;;;6.66;91.03
81224;BME280;70698;44.402;18.522;2024-02-21T06:46:06;98404.72;;;6.79;90.21
81224;BME280;70698;44.402;18.522;2024-02-21T06:48:32;98413.56;;;6.87;89.55
81224;BME280;70698;44.402;18.522;2024-02-21T06:50:57;98425.44;;;6.91;89.50
81224;BME280;70698;44.402;18.522;2024-02-21T06:53:23;98423.28;;;6.76;89.17
81224;BME280;70698;44.402;18.522;2024-02-21T06:55:48;98422.94;;;6.69;90.50
81224;BME280;70698;44.402;18.522;2024-02-21T06:58:14;98424.59;;;6.70;90.74
81224;BME280;70698;44.402;18.522;2024-02-21T07:00:42;98414.28;;;6.69;90.11
81224;BME280;70698;44.402;18.522;2024-02-21T07:03:08;98432.50;;;6.80;90.67
81224;BME280;70698;44.402;18.522;2024-02-21T07:05:33;98420.16;;;6.82;89.70
81224;BME280;70698;44.402;18.522;2024-02-21T07:07:59;98430.78;;;6.90;86.99
81224;BME280;70698;44.402;18.522;2024-02-21T07:10:24;98434.28;;;7.00;86.11
81224;BME280;70698;44.402;18.522;2024-02-21T07:12:50;98437.16;;;6.97;86.52
81224;BME280;70698;44.402;18.522;2024-02-21T07:15:17;98443.53;;;7.04;85.23
81224;BME280;70698;44.402;18.522;2024-02-21T07:17:43;98454.41;;;7.09;86.31
81224;BME280;70698;44.402;18.522;2024-02-21T07:20:08;98457.03;;;7.09;87.06
81224;BME280;70698;44.402;18.522;2024-02-21T07:22:34;98457.88;;;7.10;85.94
81224;BME280;70698;44.402;18.522;2024-02-21T07:25:00;98456.41;;;6.96;86.36
81224;BME280;70698;44.402;18.522;2024-02-21T07:27:25;98453.41;;;6.80;86.75
81224;BME280;70698;44.402;18.522;2024-02-21T07:29:54;98455.75;;;6.62;87.62
81224;BME280;70698;44.402;18.522;2024-02-21T07:32:19;98453.75;;;6.55;88.63
81224;BME280;70698;44.402;18.522;2024-02-21T07:34:45;98459.47;;;6.48;88.46
81224;BME280;70698;44.402;18.522;2024-02-21T07:37:11;98458.28;;;6.53;87.41
81224;BME280;70698;44.402;18.522;2024-02-21T07:39:36;98464.66;;;6.60;89.37
81224;BME280;70698;44.402;18.522;2024-02-21T07:42:04;98461.97;;;6.50;88.75
81224;BME280;70698;44.402;18.522;2024-02-21T07:44:31;98444.63;;;6.49;90.22
81224;BME280;70698;44.402;18.522;2024-02-21T07:46:57;98451.97;;;6.55;89.08
81224;BME280;70698;44.402;18.522;2024-02-21T07:49:23;98453.84;;;6.64;89.12
81224;BME280;70698;44.402;18.522;2024-02-21T07:51:49;98456.06;;;6.69;89.50
81224;BME280;70698;44.402;18.522;2024-02-21T07:54:14;98449.19;;;6.68;90.77
81224;BME280;70698;44.402;18.522;2024-02-21T07:56:40;98444.03;;;6.57;90.99
81224;BME280;70698;44.402;18.522;2024-02-21T07:59:06;98450.19;;;6.56;90.95
81224;BME280;70698;44.402;18.522;2024-02-21T08:01:31;98467.53;;;6.57;91.91
81224;BME280;70698;44.402;18.522;2024-02-21T08:03:57;98460.28;;;6.60;91.51
81224;BME280;70698;44.402;18.522;2024-02-21T08:06:24;98460.34;;;6.70;91.87
81224;BME280;70698;44.402;18.522;2024-02-21T08:08:49;98448.00;;;6.72;91.96
81224;BME280;70698;44.402;18.522;2024-02-21T08:11:15;98466.41;;;6.70;90.36
81224;BME280;70698;44.402;18.522;2024-02-21T08:13:41;98463.41;;;6.75;92.71
81224;BME280;70698;44.402;18.522;2024-02-21T08:16:06;98466.41;;;6.70;91.22
81224;BME280;70698;44.402;18.522;2024-02-21T08:18:32;98452.16;;;6.63;91.20
81224;BME280;70698;44.402;18.522;2024-02-21T08:21:01;98473.41;;;6.70;94.36
81224;BME280;70698;44.402;18.522;2024-02-21T08:23:28;98469.38;;;6.66;93.01
81224;BME280;70698;44.402;18.522;2024-02-21T08:25:54;98463.84;;;6.59;95.40
81224;BME280;70698;44.402;18.522;2024-02-21T08:28:19;98457.53;;;6.62;92.19
81224;BME280;70698;44.402;18.522;2024-02-21T08:30:45;98464.31;;;6.85;94.29
81224;BME280;70698;44.402;18.522;2024-02-21T08:33:16;98473.03;;;6.95;92.34
81224;BME280;70698;44.402;18.522;2024-02-21T08:35:45;98458.97;;;7.07;91.68
81224;BME280;70698;44.402;18.522;2024-02-21T08:38:10;98455.53;;;7.07;89.72
81224;BME280;70698;44.402;18.522;2024-02-21T08:40:36;98464.25;;;6.96;88.69
81224;BME280;70698;44.402;18.522;2024-02-21T08:43:02;98454.59;;;7.17;88.88
81224;BME280;70698;44.402;18.522;2024-02-21T08:45:29;98457.72;;;7.32;88.12
81224;BME280;70698;44.402;18.522;2024-02-21T08:47:54;98453.09;;;7.45;87.10
81224;BME280;70698;44.402;18.522;2024-02-21T08:50:20;98449.94;;;7.42;84.68
81224;BME280;70698;44.402;18.522;2024-02-21T08:52:45;98454.81;;;7.56;84.97
81224;BME280;70698;44.402;18.522;2024-02-21T08:55:11;98461.03;;;7.64;85.48
81224;BME280;70698;44.402;18.522;2024-02-21T08:57:36;98459.84;;;7.48;85.23
81224;BME280;70698;44.402;18.522;2024-02-21T09:00:04;98444.00;;;7.40;85.03
81224;BME280;70698;44.402;18.522;2024-02-21T09:02:41;98444.50;;;7.64;85.79
81224;BME280;70698;44.402;18.522;2024-02-21T09:05:11;98443.91;;;7.51;83.06
81224;BME280;70698;44.402;18.522;2024-02-21T09:07:36;98445.81;;;7.49;84.34
81224;BME280;70698;44.402;18.522;2024-02-21T09:10:02;98431.22;;;7.46;84.17
81224;BME280;70698;44.402;18.522;2024-02-21T09:12:28;98439.94;;;7.56;83.76
81224;BME280;70698;44.402;18.522;2024-02-21T09:14:54;98434.34;;;7.70;82.54
81224;BME280;70698;44.402;18.522;2024-02-21T09:17:20;98439.28;;;7.73;80.79
81224;BME280;70698;44.402;18.522;2024-02-21T09:19:47;98439.91;;;7.87;81.65
81224;BME280;70698;44.402;18.522;2024-02-21T09:22:13;98422.31;;;8.17;80.34
81224;BME280;70698;44.402;18.522;2024-02-21T09:24:39;98436.69;;;8.33;78.80
81224;BME280;70698;44.402;18.522;2024-02-21T09:27:05;98427.44;;;8.57;76.32
81224;BME280;70698;44.402;18.522;2024-02-21T09:29:31;98433.13;;;9.28;73.62
81224;BME280;70698;44.402;18.522;2024-02-21T09:31:59;98426.28;;;9.08;72.05
81224;BME280;70698;44.402;18.522;2024-02-21T09:34:25;98434.56;;;9.13;72.84
81224;BME280;70698;44.402;18.522;2024-02-21T09:36:50;98439.75;;;9.32;71.05
81224;BME280;70698;44.402;18.522;2024-02-21T09:39:16;98433.19;;;9.56;70.85
81224;BME280;70698;44.402;18.522;2024-02-21T09:41:50;98446.44;;;9.81;67.44
81224;BME280;70698;44.402;18.522;2024-02-21T09:44:23;98448.59;;;9.31;69.02
81224;BME280;70698;44.402;18.522;2024-02-21T09:47:02;98445.53;;;9.45;68.33
81224;BME280;70698;44.402;18.522;2024-02-21T09:49:34;98449.53;;;9.40;67.45
81224;BME280;70698;44.402;18.522;2024-02-21T09:52:01;98449.25;;;9.80;68.63
81224;BME280;70698;44.402;18.522;2024-02-21T09:54:29;98443.31;;;10.05;67.44
81224;BME280;70698;44.402;18.522;2024-02-21T09:56:57;98448.38;;;10.07;65.52
81224;BME280;70698;44.402;18.522;2024-02-21T09:59:24;98430.81;;;9.89;68.19
81224;BME280;70698;44.402;18.522;2024-02-21T10:01:50;98420.59;;;10.31;67.15
81224;BME280;70698;44.402;18.522;2024-02-21T10:04:17;98419.22;;;10.10;68.16
81224;BME280;70698;44.402;18.522;2024-02-21T10:06:44;98423.13;;;10.76;61.89
81224;BME280;70698;44.402;18.522;2024-02-21T10:09:20;98417.69;;;11.21;61.31
81224;BME280;70698;44.402;18.522;2024-02-21T10:11:47;98418.78;;;12.13;60.11
81224;BME280;70698;44.402;18.522;2024-02-21T10:14:13;98412.41;;;12.23;58.30
81224;BME280;70698;44.402;18.522;2024-02-21T10:16:39;98413.22;;;12.32;56.93
81224;BME280;70698;44.402;18.522;2024-02-21T10:19:05;98417.56;;;12.73;55.27
81224;BME280;70698;44.402;18.522;2024-02-21T10:21:30;98369.25;;;12.48;54.57
81224;BME280;70698;44.402;18.522;2024-02-21T10:23:56;98391.00;;;12.34;55.03
81224;BME280;70698;44.402;18.522;2024-02-21T10:26:22;98392.00;;;12.49;56.46
81224;BME280;70698;44.402;18.522;2024-02-21T10:28:47;98392.00;;;12.49;55.55
81224;BME280;70698;44.402;18.522;2024-02-21T10:31:27;98387.44;;;11.85;55.91
81224;BME280;70698;44.402;18.522;2024-02-21T10:34:00;98393.34;;;11.87;56.50
81224;BME280;70698;44.402;18.522;2024-02-21T10:36:29;98392.56;;;11.95;56.01
81224;BME280;70698;44.402;18.522;2024-02-21T10:38:55;98383.81;;;11.86;58.24
81224;BME280;70698;44.402;18.522;2024-02-21T10:41:22;98384.94;;;11.16;62.64
81224;BME280;70698;44.402;18.522;2024-02-21T10:43:53;98376.28;;;11.57;55.37
81224;BME280;70698;44.402;18.522;2024-02-21T10:46:21;98373.75;;;11.74;56.46
81224;BME280;70698;44.402;18.522;2024-02-21T10:48:50;98368.47;;;11.82;54.94
81224;BME280;70698;44.402;18.522;2024-02-21T10:51:19;98344.53;;;11.67;54.93
81224;BME280;70698;44.402;18.522;2024-02-21T10:56:31;98342.88;;;12.40;52.31
81224;BME280;70698;44.402;18.522;2024-02-21T10:59:01;98337.44;;;13.46;51.60
81224;BME280;70698;44.402;18.522;2024-02-21T11:01:30;98333.56;;;14.18;50.00
81224;BME280;70698;44.402;18.522;2024-02-21T11:04:03;98317.84;;;14.47;48.90
81224;BME280;70698;44.402;18.522;2024-02-21T11:06:30;98326.75;;;13.70;48.82
81224;BME280;70698;44.402;18.522;2024-02-21T11:09:09;98310.81;;;13.24;49.03
81224;BME280;70698;44.402;18.522;2024-02-21T11:11:43;98309.28;;;13.69;48.26
81224;BME280;70698;44.402;18.522;2024-02-21T11:14:11;98293.34;;;14.08;48.20
81224;BME280;70698;44.402;18.522;2024-02-21T11:16:43;98304.56;;;13.01;48.45
81224;BME280;70698;44.402;18.522;2024-02-21T11:19:18;98304.50;;;12.22;52.20
81224;BME280;70698;44.402;18.522;2024-02-21T11:21:44;98283.25;;;11.99;52.85
81224;BME280;70698;44.402;18.522;2024-02-21T11:24:10;98294.97;;;12.45;53.50
81224;BME280;70698;44.402;18.522;2024-02-21T11:26:37;98285.56;;;13.22;52.39
81224;BME280;70698;44.402;18.522;2024-02-21T11:29:03;98288.81;;;12.61;53.44
81224;BME280;70698;44.402;18.522;2024-02-21T11:31:41;98281.94;;;12.27;53.77
81224;BME280;70698;44.402;18.522;2024-02-21T11:34:16;98274.97;;;11.78;55.51
81224;BME280;70698;44.402;18.522;2024-02-21T11:36:49;98274.66;;;12.62;50.21
81224;BME280;70698;44.402;18.522;2024-02-21T11:39:25;98267.44;;;13.03;50.22
81224;BME280;70698;44.402;18.522;2024-02-21T11:42:04;98261.63;;;12.52;52.78
81224;BME280;70698;44.402;18.522;2024-02-21T11:44:37;98249.13;;;13.79;50.38
81224;BME280;70698;44.402;18.522;2024-02-21T11:47:08;98255.81;;;13.90;49.44
81224;BME280;70698;44.402;18.522;2024-02-21T11:49:45;98250.75;;;14.63;47.48
81224;BME280;70698;44.402;18.522;2024-02-21T11:52:12;98243.06;;;14.53;42.97
81224;BME280;70698;44.402;18.522;2024-02-21T11:54:41;98239.94;;;15.38;42.68
81224;BME280;70698;44.402;18.522;2024-02-21T11:57:07;98231.97;;;15.53;43.27
81224;BME280;70698;44.402;18.522;2024-02-21T11:59:33;98234.84;;;15.72;41.30
81224;BME280;70698;44.402;18.522;2024-02-21T12:02:00;98218.63;;;15.46;40.87
81224;BME280;70698;44.402;18.522;2024-02-21T12:04:26;98220.00;;;14.25;42.50
81224;BME280;70698;44.402;18.522;2024-02-21T12:06:53;98229.38;;;12.34;46.93
81224;BME280;70698;44.402;18.522;2024-02-21T12:09:19;98236.97;;;12.04;49.20
81224;BME280;70698;44.402;18.522;2024-02-21T12:11:45;98235.25;;;11.71;52.02
81224;BME280;70698;44.402;18.522;2024-02-21T12:14:16;98221.91;;;11.48;52.19
81224;BME280;70698;44.402;18.522;2024-02-21T12:16:42;98223.81;;;11.88;49.82
81224;BME280;70698;44.402;18.522;2024-02-21T12:19:09;98219.63;;;11.61;52.32
81224;BME280;70698;44.402;18.522;2024-02-21T12:21:35;98202.31;;;11.51;50.44
81224;BME280;70698;44.402;18.522;2024-02-21T12:24:23;98203.16;;;11.35;53.17
81224;BME280;70698;44.402;18.522;2024-02-21T12:26:50;98209.31;;;11.92;50.44
81224;BME280;70698;44.402;18.522;2024-02-21T12:29:18;98216.06;;;11.95;48.82
81224;BME280;70698;44.402;18.522;2024-02-21T12:31:43;98199.59;;;11.93;49.74
81224;BME280;70698;44.402;18.522;2024-02-21T12:34:09;98201.75;;;11.97;49.98
81224;BME280;70698;44.402;18.522;2024-02-21T12:36:41;98192.97;;;11.56;49.96
81224;BME280;70698;44.402;18.522;2024-02-21T12:39:08;98179.31;;;11.61;51.44
81224;BME280;70698;44.402;18.522;2024-02-21T12:41:34;98179.22;;;11.12;51.59
81224;BME280;70698;44.402;18.522;2024-02-21T12:44:07;98185.66;;;11.10;53.43
81224;BME280;70698;44.402;18.522;2024-02-21T12:46:36;98165.50;;;10.85;54.04
81224;BME280;70698;44.402;18.522;2024-02-21T12:49:02;98179.00;;;10.90;55.31
81224;BME280;70698;44.402;18.522;2024-02-21T12:51:29;98172.44;;;10.94;54.48
81224;BME280;70698;44.402;18.522;2024-02-21T12:53:55;98176.19;;;10.83;55.52
81224;BME280;70698;44.402;18.522;2024-02-21T12:56:21;98174.00;;;10.70;55.25
81224;BME280;70698;44.402;18.522;2024-02-21T12:58:46;98175.94;;;10.60;55.84